Polar Endurance — WDG2085 — position and weather

sailwx.info

Track history (hours):
 
Tides and Currents Weather Stations Pressure Air Temp Water Temp Dewpoint Dewpoint Depression Visibility Wind Speed Wind Dir Waves Ship Positions

Polar Endurance

More information available from US FCC via Universal Licensing System and Coast Guard Vessel Documentation Center.

Last reported at 2014-Aug-28 17:33 UTC. Time now 2014-Aug-31 04:35 UTC.
Position N 47°59' W 122°13'.

Length 37 m; draft 5 m.

Type: Towing. MMSI: 303144000.

Date/timePositionNaut miles runAvg speedWind from/ knotsBaromVisibWave heightAir tempDewpointWater temp
2014-Aug-28 17:33N 47°59' W 122°13'1010.4
2014-Aug-28 16:33N 47°51' W 122°23'1212.4
2014-Aug-28 15:33N 47°38' W 122°26'1 1.3
2014-Aug-28 14:33N 47°37' W 122°25'7 6.8
2014-Aug-28 13:33N 47°44' W 122°27'8 7.9
2014-Aug-28 12:33N 47°52' W 122°29'8 7.4
2014-Aug-28 11:31N 47°58' W 122°36'24 7.6
2014-Aug-28 08:18N 48°12' W 123°06'6 7.7
2014-Aug-28 07:33N 48°12' W 123°15'7 7.4
2014-Aug-28 06:33N 48°13' W 123°25'6 6.5
2014-Aug-28 05:33N 48°13' W 123°35'6 6.4
2014-Aug-28 04:33N 48°13' W 123°45'6 6.3
2014-Aug-28 03:33N 48°13' W 123°54'7 7.1
2014-Aug-28 02:32N 48°15' W 124°05'8 7.8
2014-Aug-28 01:33N 48°19' W 124°15'9 8.5
2014-Aug-28 00:33N 48°22' W 124°27'8 8.5
2014-Aug-27 23:34N 48°26' W 124°38'10 9.5
2014-Aug-27 22:33N 48°28' W 124°52'10 9.4
2014-Aug-27 21:31N 48°29' W 125°07'10 8.1
2014-Aug-27 20:16N 48°34' W 125°20'5 7.6
2014-Aug-27 19:33N 48°37' W 125°27'8 7.6
2014-Aug-27 18:33N 48°41' W 125°36'8 8.0
2014-Aug-27 17:33N 48°46' W 125°46'8 8.2
2014-Aug-27 16:33N 48°50' W 125°57'8 8.1
2014-Aug-27 15:33N 48°55' W 126°07'9 8.3
2014-Aug-27 14:28N 49°00' W 126°18'  
2014-Aug-24 06:00N 55°42' W 138°48'207 8.6 180 / 51023.010.8 13.9
2014-Aug-23 06:00N 56°48' W 144°42'196 8.2 999 / 51024.0 5.4 13.3
2014-Aug-22 06:00N 57°54' W 150°24'   210 / 141022.010.8 0.512.2
2014-Aug-19 06:00N 55°24' W 160°54'   230 / 71019.010.8 13.3
Track history (hours):
 
Tides and Currents Weather Stations Pressure Air Temp Water Temp Dewpoint Dewpoint Depression Visibility Wind Speed Wind Dir Waves Ship Positions

Polar Endurance

More information available from US FCC via Universal Licensing System and Coast Guard Vessel Documentation Center.

Last reported at 2014-Aug-28 17:33 UTC. Time now 2014-Aug-31 04:35 UTC.
Position N 47°59' W 122°13'.

Length 37 m; draft 5 m.

Type: Towing. MMSI: 303144000.

Date/timePositionNaut miles runAvg speedWind from/ knotsBaromVisibWave heightAir tempDewpointWater temp
2014-Aug-28 17:33N 47°59' W 122°13'1010.4
2014-Aug-28 16:33N 47°51' W 122°23'1212.4
2014-Aug-28 15:33N 47°38' W 122°26'1 1.3
2014-Aug-28 14:33N 47°37' W 122°25'7 6.8
2014-Aug-28 13:33N 47°44' W 122°27'8 7.9
2014-Aug-28 12:33N 47°52' W 122°29'8 7.4
2014-Aug-28 11:31N 47°58' W 122°36'24 7.6
2014-Aug-28 08:18N 48°12' W 123°06'6 7.7
2014-Aug-28 07:33N 48°12' W 123°15'7 7.4
2014-Aug-28 06:33N 48°13' W 123°25'6 6.5
2014-Aug-28 05:33N 48°13' W 123°35'6 6.4
2014-Aug-28 04:33N 48°13' W 123°45'6 6.3
2014-Aug-28 03:33N 48°13' W 123°54'7 7.1
2014-Aug-28 02:32N 48°15' W 124°05'8 7.8
2014-Aug-28 01:33N 48°19' W 124°15'9 8.5
2014-Aug-28 00:33N 48°22' W 124°27'8 8.5
2014-Aug-27 23:34N 48°26' W 124°38'10 9.5
2014-Aug-27 22:33N 48°28' W 124°52'10 9.4
2014-Aug-27 21:31N 48°29' W 125°07'10 8.1
2014-Aug-27 20:16N 48°34' W 125°20'5 7.6
2014-Aug-27 19:33N 48°37' W 125°27'8 7.6
2014-Aug-27 18:33N 48°41' W 125°36'8 8.0
2014-Aug-27 17:33N 48°46' W 125°46'8 8.2
2014-Aug-27 16:33N 48°50' W 125°57'8 8.1
2014-Aug-27 15:33N 48°55' W 126°07'9 8.3
2014-Aug-27 14:28N 49°00' W 126°18'  
2014-Aug-24 06:00N 55°42' W 138°48'207 8.6 180 / 51023.010.8 13.9
2014-Aug-23 06:00N 56°48' W 144°42'196 8.2 999 / 51024.0 5.4 13.3
2014-Aug-22 06:00N 57°54' W 150°24'   210 / 141022.010.8 0.512.2
2014-Aug-19 06:00N 55°24' W 160°54'   230 / 71019.010.8 13.3

Dump ship's entire track history